createdAt,value
2022-12-19T00:00:30.361Z,28.38
2022-12-19T00:02:58.151Z,26.40
2022-12-19T00:05:25.993Z,28.77
2022-12-19T00:07:54.516Z,30.98
2022-12-19T00:10:22.305Z,29.73
2022-12-19T00:12:50.026Z,28.30
2022-12-19T00:15:17.931Z,35.05
2022-12-19T00:17:46.972Z,39.90
2022-12-19T00:20:14.841Z,26.48
2022-12-19T00:22:46.287Z,31.35
2022-12-19T00:25:14.113Z,34.42
2022-12-19T00:27:42.216Z,45.22
2022-12-19T00:30:11.564Z,54.40
2022-12-19T00:32:39.681Z,29.52
2022-12-19T00:35:09.562Z,20.90
2022-12-19T00:37:37.454Z,29.23
2022-12-19T00:40:09.435Z,22.02
2022-12-19T00:42:39.712Z,30.63
2022-12-19T00:45:10.206Z,26.30
2022-12-19T00:47:37.950Z,34.63
2022-12-19T00:50:06.226Z,29.13
2022-12-19T00:52:35.370Z,41.00
2022-12-19T00:55:05.030Z,50.88
2022-12-19T00:57:37.019Z,34.08
2022-12-19T01:00:06.066Z,45.90
2022-12-19T01:02:33.959Z,49.97
2022-12-19T01:05:02.995Z,25.05
2022-12-19T01:07:30.786Z,46.45
2022-12-19T01:10:03.130Z,24.60
2022-12-19T01:12:48.041Z,26.90
2022-12-19T01:15:18.266Z,34.42
2022-12-19T01:17:46.080Z,28.95
2022-12-19T01:20:15.916Z,36.17
2022-12-19T01:22:43.801Z,34.33
2022-12-19T01:25:15.897Z,36.08
2022-12-19T01:27:43.694Z,48.67
2022-12-19T01:30:13.049Z,28.05
2022-12-19T01:32:41.487Z,40.05
2022-12-19T01:35:14.608Z,32.72
2022-12-19T01:37:49.971Z,37.72
2022-12-19T01:40:19.663Z,31.40
2022-12-19T01:42:49.017Z,30.38
2022-12-19T01:45:43.605Z,21.50
2022-12-19T01:48:17.808Z,42.90
2022-12-19T01:51:01.046Z,42.88
2022-12-19T01:53:36.645Z,40.55
2022-12-19T01:56:20.625Z,37.53
2022-12-19T01:58:57.960Z,27.38
2022-12-19T02:01:50.117Z,36.80
2022-12-19T02:04:20.900Z,39.58
2022-12-19T02:06:49.914Z,37.45
2022-12-19T02:09:18.431Z,29.98
2022-12-19T02:11:47.598Z,32.72
2022-12-19T02:14:16.063Z,57.28
2022-12-19T02:16:55.299Z,34.75
2022-12-19T02:19:50.685Z,18.85
2022-12-19T02:22:24.643Z,46.47
2022-12-19T02:25:20.726Z,21.80
2022-12-19T02:28:13.460Z,28.13
2022-12-19T02:31:00.166Z,30.45
2022-12-19T02:33:41.738Z,34.45
2022-12-19T02:38:45.178Z,19.65
2022-12-19T02:41:21.089Z,19.25
2022-12-19T02:43:52.832Z,45.22
2022-12-19T02:46:29.767Z,27.13
2022-12-19T02:48:58.162Z,46.22
2022-12-19T02:51:25.953Z,18.13
2022-12-19T02:53:53.810Z,33.45
2022-12-19T02:56:34.861Z,26.25
2022-12-19T02:59:15.794Z,22.05
2022-12-19T03:01:50.289Z,23.35
2022-12-19T03:04:32.679Z,41.13
2022-12-19T03:07:09.127Z,49.05
2022-12-19T03:09:46.403Z,19.63
2022-12-19T03:12:20.974Z,22.80
2022-12-19T03:14:49.892Z,18.30
2022-12-19T03:17:20.388Z,19.95
2022-12-19T03:19:48.412Z,49.38
2022-12-19T03:22:16.266Z,17.15
2022-12-19T03:24:44.237Z,18.35
2022-12-19T03:27:16.325Z,36.15
2022-12-19T03:29:50.643Z,18.30
2022-12-19T03:32:22.520Z,22.88
2022-12-19T03:34:54.844Z,17.45
2022-12-19T03:37:27.105Z,24.63
2022-12-19T03:39:59.219Z,15.35
2022-12-19T03:42:47.070Z,15.75
2022-12-19T03:45:19.666Z,29.42
2022-12-19T03:47:52.663Z,16.85
2022-12-19T03:50:20.754Z,16.98
2022-12-19T03:52:56.058Z,34.72
2022-12-19T03:55:31.345Z,17.83
2022-12-19T03:58:05.462Z,16.02
2022-12-19T04:00:37.608Z,14.85
2022-12-19T04:03:08.085Z,11.25
2022-12-19T04:05:39.024Z,35.83
2022-12-19T04:08:09.015Z,23.58
2022-12-19T04:10:44.553Z,14.65
2022-12-19T04:13:17.297Z,13.38
2022-12-19T04:15:52.478Z,32.05
2022-12-19T04:18:22.264Z,15.40
2022-12-19T04:20:54.043Z,19.35
2022-12-19T04:23:26.713Z,11.05
2022-12-19T04:26:01.472Z,12.73
2022-12-19T04:28:34.437Z,14.18
2022-12-19T04:31:03.869Z,14.95
2022-12-19T04:33:32.968Z,19.95
2022-12-19T04:36:01.238Z,14.18
2022-12-19T04:38:29.040Z,12.68
2022-12-19T04:40:56.798Z,16.80
2022-12-19T04:43:24.954Z,39.20
2022-12-19T04:45:57.101Z,13.30
2022-12-19T04:48:26.044Z,12.10
2022-12-19T04:50:56.229Z,12.02
2022-12-19T04:53:24.371Z,12.98
2022-12-19T04:55:52.124Z,16.83
2022-12-19T04:58:22.055Z,15.27
2022-12-19T05:00:49.981Z,12.60
2022-12-19T05:03:17.829Z,19.73
2022-12-19T05:05:45.582Z,15.25
2022-12-19T05:08:14.699Z,10.82
2022-12-19T05:10:42.408Z,15.98
2022-12-19T05:13:10.491Z,12.38
2022-12-19T05:15:38.309Z,11.73
2022-12-19T05:18:06.216Z,11.40
2022-12-19T05:20:34.390Z,11.55
2022-12-19T05:23:05.758Z,11.07
2022-12-19T05:25:37.145Z,16.63
2022-12-19T05:28:05.240Z,11.18
2022-12-19T05:30:33.000Z,28.35
2022-12-19T05:33:01.338Z,9.85
2022-12-19T05:35:29.098Z,10.40
2022-12-19T05:37:56.884Z,9.98
2022-12-19T05:40:24.685Z,9.95
2022-12-19T05:42:53.882Z,10.98
2022-12-19T05:45:22.276Z,14.65
2022-12-19T05:47:50.184Z,10.50
2022-12-19T05:50:19.069Z,10.48
2022-12-19T05:52:51.974Z,18.40
2022-12-19T05:55:20.158Z,10.13
2022-12-19T05:57:47.859Z,10.40
2022-12-19T06:00:17.922Z,15.55
2022-12-19T06:02:45.756Z,9.90
2022-12-19T06:05:13.589Z,15.65
2022-12-19T06:07:41.612Z,10.75
2022-12-19T06:10:09.565Z,9.63
2022-12-19T06:12:37.314Z,10.23
2022-12-19T06:15:05.560Z,9.07
2022-12-19T06:17:34.721Z,8.82
2022-12-19T06:20:02.559Z,9.57
2022-12-19T06:22:30.308Z,11.23
2022-12-19T06:24:58.042Z,8.40
2022-12-19T06:27:25.794Z,9.07
2022-12-19T06:29:53.510Z,8.32
2022-12-19T06:32:21.262Z,8.73
2022-12-19T06:35:05.626Z,13.88
2022-12-19T06:37:33.471Z,7.18
2022-12-19T06:40:01.273Z,8.23
2022-12-19T06:42:28.033Z,6.25
2022-12-19T06:44:56.829Z,9.70
2022-12-19T06:47:25.977Z,8.48
2022-12-19T06:49:55.120Z,7.57
2022-12-19T06:52:22.871Z,10.50
2022-12-19T06:54:50.692Z,7.22
2022-12-19T06:57:18.578Z,9.00
2022-12-19T06:59:46.336Z,8.43
2022-12-19T07:02:25.683Z,7.43
2022-12-19T07:05:01.569Z,8.25
2022-12-19T07:07:29.915Z,7.70
2022-12-19T07:09:57.724Z,8.50
2022-12-19T07:12:25.515Z,10.77
2022-12-19T07:14:53.844Z,18.10
2022-12-19T07:17:23.473Z,9.20
2022-12-19T07:19:54.478Z,10.18
2022-12-19T07:22:24.726Z,11.85
2022-12-19T07:24:52.709Z,9.32
2022-12-19T07:27:20.537Z,9.73
2022-12-19T07:29:48.312Z,9.98
2022-12-19T07:32:16.056Z,7.72
2022-12-19T07:34:43.810Z,9.48
2022-12-19T07:37:11.551Z,7.95
2022-12-19T07:39:40.637Z,9.30
2022-12-19T07:42:08.405Z,8.68
2022-12-19T07:47:10.038Z,8.30
2022-12-19T07:49:37.885Z,9.68
2022-12-19T07:52:05.670Z,9.65
2022-12-19T07:54:33.481Z,8.48
2022-12-19T07:57:02.883Z,8.70
2022-12-19T07:59:35.655Z,8.80
2022-12-19T08:02:07.244Z,10.32
2022-12-19T08:04:36.104Z,10.07
2022-12-19T08:07:03.843Z,15.10
2022-12-19T08:09:31.680Z,8.65
2022-12-19T08:11:59.824Z,7.80
2022-12-19T08:14:29.233Z,9.55
2022-12-19T08:17:19.702Z,8.40
2022-12-19T08:19:44.757Z,8.68
2022-12-19T08:22:12.578Z,7.53
2022-12-19T08:24:40.374Z,8.32
2022-12-19T08:27:08.104Z,8.40
2022-12-19T08:29:37.209Z,9.63
2022-12-19T08:32:05.238Z,8.68
2022-12-19T08:34:33.400Z,8.85
2022-12-19T08:37:01.150Z,8.65
2022-12-19T08:39:28.865Z,9.18
2022-12-19T08:41:56.565Z,8.32
2022-12-19T08:44:24.504Z,10.38
2022-12-19T08:46:53.650Z,8.85
2022-12-19T08:49:21.592Z,10.45
2022-12-19T08:51:49.734Z,8.98
2022-12-19T08:54:17.486Z,9.43
2022-12-19T08:56:46.691Z,8.20
2022-12-19T08:59:20.495Z,8.68
2022-12-19T09:02:01.287Z,8.63
2022-12-19T09:06:01.830Z,8.10
2022-12-19T09:07:17.224Z,8.50
2022-12-19T09:09:45.082Z,8.45
2022-12-19T09:12:13.280Z,8.40
2022-12-19T09:14:41.152Z,8.00
2022-12-19T09:17:10.365Z,7.90
2022-12-19T09:19:38.150Z,8.02
2022-12-19T09:22:06.823Z,7.75
2022-12-19T09:24:34.554Z,7.63
2022-12-19T09:27:02.859Z,8.35
2022-12-19T09:29:35.085Z,6.75
2022-12-19T09:32:03.439Z,7.10
2022-12-19T09:34:37.355Z,7.53
2022-12-19T09:37:06.557Z,7.13
2022-12-19T09:39:35.372Z,6.75
2022-12-19T09:42:16.210Z,7.45
2022-12-19T09:44:58.875Z,7.55
2022-12-19T09:47:31.663Z,7.35
2022-12-19T09:50:02.572Z,6.88
2022-12-19T09:52:34.884Z,7.78
2022-12-19T09:55:07.627Z,8.60
2022-12-19T09:57:42.431Z,7.53
2022-12-19T10:00:14.713Z,6.75
2022-12-19T10:02:48.328Z,7.13
2022-12-19T10:06:34.036Z,7.38
2022-12-19T10:08:18.107Z,6.53
2022-12-19T10:12:38.035Z,7.90
2022-12-19T10:14:02.958Z,6.60
2022-12-19T10:16:41.598Z,6.70
2022-12-19T10:19:11.094Z,7.88
2022-12-19T10:25:09.271Z,7.55
2022-12-19T10:27:59.698Z,7.53
2022-12-19T10:30:31.777Z,6.78
2022-12-19T10:33:14.750Z,7.32
2022-12-19T10:35:55.249Z,7.32
2022-12-19T10:38:32.983Z,6.50
2022-12-19T10:41:16.256Z,8.50
2022-12-19T10:43:53.960Z,7.63
2022-12-19T10:46:31.515Z,7.22
2022-12-19T10:49:03.393Z,7.68
2022-12-19T10:51:33.127Z,6.40
2022-12-19T10:54:02.232Z,6.60
2022-12-19T10:56:37.173Z,7.28
2022-12-19T10:59:17.505Z,7.15
2022-12-19T11:01:45.706Z,7.35
2022-12-19T11:04:31.699Z,7.28
2022-12-19T11:07:18.870Z,6.55
2022-12-19T11:10:15.899Z,6.47
2022-12-19T11:17:00.506Z,6.47
2022-12-19T11:18:56.715Z,7.38
2022-12-19T11:25:28.495Z,7.13
2022-12-19T11:29:25.113Z,6.95
2022-12-19T11:30:41.543Z,6.50
2022-12-19T11:30:46.250Z,6.25
2022-12-19T11:32:42.247Z,6.03
2022-12-19T11:35:24.699Z,6.43
2022-12-19T11:37:57.203Z,6.70
2022-12-19T11:40:34.066Z,6.40
2022-12-19T11:43:43.018Z,6.70
2022-12-19T11:46:03.728Z,5.88
2022-12-19T11:48:38.529Z,6.82
2022-12-19T11:51:15.878Z,7.18
2022-12-19T11:53:50.411Z,6.20
2022-12-19T11:56:21.752Z,5.97
2022-12-19T11:58:54.998Z,7.07
2022-12-19T12:01:42.213Z,6.30
2022-12-19T12:04:47.535Z,6.32
2022-12-19T12:07:39.857Z,6.13
2022-12-19T12:15:37.080Z,6.68
2022-12-19T12:20:57.685Z,6.50
2022-12-19T12:28:41.631Z,5.68
2022-12-19T12:31:12.016Z,5.63
2022-12-19T12:31:31.951Z,5.95
2022-12-19T12:31:39.469Z,6.05
2022-12-19T12:31:42.621Z,5.45
2022-12-19T12:31:50.627Z,6.18
2022-12-19T12:35:56.312Z,6.28
2022-12-19T12:39:52.123Z,6.15
2022-12-19T12:42:34.341Z,4.97
2022-12-19T12:45:16.329Z,5.80
2022-12-19T12:47:45.350Z,5.72
2022-12-19T12:50:18.204Z,5.47
2022-12-19T12:52:49.247Z,5.07
2022-12-19T12:55:21.997Z,6.25
2022-12-19T12:57:49.775Z,5.90
2022-12-19T13:00:25.157Z,5.60
2022-12-19T13:02:57.291Z,5.40
2022-12-19T13:05:39.389Z,5.30
2022-12-19T13:08:36.205Z,4.63
2022-12-19T13:11:06.954Z,5.03
2022-12-19T13:13:53.454Z,4.97
2022-12-19T13:16:49.766Z,4.88
2022-12-19T13:19:25.794Z,5.22
2022-12-19T13:22:41.324Z,5.05
2022-12-19T13:25:45.287Z,4.75
2022-12-19T13:28:42.891Z,5.10
2022-12-19T13:31:20.529Z,4.60
2022-12-19T13:34:20.147Z,5.03
2022-12-19T13:39:49.404Z,4.90
2022-12-19T13:40:01.729Z,5.20
2022-12-19T13:42:59.463Z,4.78
2022-12-19T13:45:41.945Z,4.10
2022-12-19T13:48:16.249Z,5.00
2022-12-19T13:50:47.660Z,4.88
2022-12-19T13:53:18.349Z,4.80
2022-12-19T13:55:47.756Z,4.72
2022-12-19T13:58:29.455Z,4.95
2022-12-19T14:01:02.275Z,4.85
2022-12-19T14:03:39.084Z,4.78
2022-12-19T14:06:18.738Z,5.05
2022-12-19T14:10:02.882Z,4.70
2022-12-19T14:13:38.608Z,4.93
2022-12-19T14:14:58.095Z,5.03
2022-12-19T14:17:37.829Z,4.65
2022-12-19T14:22:02.528Z,4.80
2022-12-19T14:23:06.418Z,4.95
2022-12-19T14:28:18.617Z,4.57
2022-12-19T14:28:32.602Z,4.22
2022-12-19T14:31:03.889Z,4.93
2022-12-19T14:33:44.186Z,4.75
2022-12-19T14:36:26.194Z,4.82
2022-12-19T14:39:23.615Z,4.68
2022-12-19T14:42:04.111Z,4.60
2022-12-19T14:52:53.663Z,4.43
2022-12-19T14:54:07.298Z,4.70
2022-12-19T14:54:09.038Z,4.60
2022-12-19T14:54:31.364Z,4.75
2022-12-19T14:56:29.077Z,4.57
2022-12-19T14:58:59.683Z,4.65
2022-12-19T15:01:32.001Z,3.97
2022-12-19T15:04:53.510Z,4.35
2022-12-19T15:07:07.694Z,4.75
2022-12-19T15:11:02.799Z,4.30
2022-12-19T15:14:48.944Z,4.80
2022-12-19T15:15:59.057Z,5.28
2022-12-19T15:20:59.250Z,4.30
2022-12-19T15:23:27.650Z,4.60
2022-12-19T15:26:06.190Z,5.07
2022-12-19T15:28:42.022Z,4.15
2022-12-19T15:31:23.404Z,4.30
2022-12-19T15:34:33.579Z,4.65
2022-12-19T15:36:40.421Z,4.43
2022-12-19T15:39:08.263Z,4.35
2022-12-19T15:41:36.527Z,4.13
2022-12-19T15:44:09.927Z,4.50
2022-12-19T15:46:41.341Z,4.38
2022-12-19T15:49:17.107Z,4.95
2022-12-19T15:51:44.926Z,4.20
2022-12-19T15:54:47.164Z,4.32
2022-12-19T15:57:00.558Z,4.40
2022-12-19T15:59:37.834Z,4.82
2022-12-19T16:02:17.104Z,4.55
2022-12-19T16:04:47.339Z,4.45
2022-12-19T16:07:17.731Z,4.50
2022-12-19T16:09:45.579Z,4.72
2022-12-19T16:12:16.498Z,5.05
2022-12-19T16:14:45.779Z,4.63
2022-12-19T16:17:18.965Z,4.90
2022-12-19T16:19:48.292Z,5.03
2022-12-19T16:22:19.394Z,4.50
2022-12-19T16:27:22.211Z,5.25
2022-12-19T16:29:50.143Z,4.40
2022-12-19T16:32:18.645Z,4.53
2022-12-19T16:34:48.099Z,4.70
2022-12-19T16:37:15.851Z,4.63
2022-12-19T16:39:43.823Z,5.18
2022-12-19T16:42:16.120Z,4.97
2022-12-19T16:44:45.712Z,4.93
2022-12-19T16:47:15.133Z,4.60
2022-12-19T16:49:44.541Z,4.45
2022-12-19T16:52:13.818Z,4.63
2022-12-19T16:54:41.785Z,4.47
2022-12-19T16:57:19.251Z,4.72
2022-12-19T16:59:47.333Z,4.53
2022-12-19T17:02:36.598Z,4.53
2022-12-19T17:05:05.263Z,4.70
2022-12-19T17:07:34.401Z,4.07
2022-12-19T17:10:02.116Z,4.47
2022-12-19T17:12:30.031Z,4.50
2022-12-19T17:14:57.860Z,4.72
2022-12-19T17:17:25.821Z,4.15
2022-12-19T17:19:53.710Z,4.30
2022-12-19T17:22:21.610Z,4.68
2022-12-19T17:24:51.044Z,4.93
2022-12-19T17:27:19.274Z,4.32
2022-12-19T17:29:47.498Z,4.50
2022-12-19T17:32:23.206Z,4.50
2022-12-19T17:34:52.829Z,4.25
2022-12-19T17:37:20.653Z,4.45
2022-12-19T17:39:49.754Z,4.30
2022-12-19T17:42:22.607Z,4.07
2022-12-19T17:44:50.350Z,4.03
2022-12-19T17:47:21.049Z,4.45
2022-12-19T17:49:49.670Z,4.05
2022-12-19T17:52:19.493Z,4.30
2022-12-19T17:54:47.457Z,4.22
2022-12-19T17:57:17.870Z,4.10
2022-12-19T17:59:46.578Z,4.60
2022-12-19T18:02:25.124Z,4.88
2022-12-19T18:04:53.730Z,4.80
2022-12-19T18:07:21.648Z,4.30
2022-12-19T18:09:49.415Z,4.40
2022-12-19T18:12:18.564Z,4.18
2022-12-19T18:14:46.328Z,4.20
2022-12-19T18:17:17.123Z,4.47
2022-12-19T18:19:44.939Z,4.30
2022-12-19T18:22:13.897Z,4.80
2022-12-19T18:24:41.919Z,5.05
2022-12-19T18:27:09.739Z,3.97
2022-12-19T18:29:38.884Z,4.07
2022-12-19T18:32:06.698Z,4.22
2022-12-19T18:34:35.528Z,4.50
2022-12-19T18:37:05.420Z,4.28
2022-12-19T18:39:34.119Z,4.10
2022-12-19T18:42:02.185Z,4.13
2022-12-19T18:44:30.050Z,4.65
2022-12-19T18:46:59.276Z,4.35
2022-12-19T18:49:28.685Z,4.32
2022-12-19T18:51:56.544Z,4.43
2022-12-19T18:54:24.315Z,4.30
2022-12-19T18:56:52.889Z,4.10
2022-12-19T18:59:20.620Z,4.30
2022-12-19T19:01:48.655Z,4.32
2022-12-19T19:04:18.582Z,4.03
2022-12-19T19:06:51.660Z,4.20
2022-12-19T19:09:21.372Z,3.72
2022-12-19T19:12:07.647Z,4.00
2022-12-19T19:14:35.404Z,3.88
2022-12-19T19:17:05.420Z,4.20
2022-12-19T19:19:34.675Z,3.90
2022-12-19T19:22:02.515Z,3.97
2022-12-19T19:24:30.513Z,4.10
2022-12-19T19:26:58.267Z,4.00
2022-12-19T19:29:26.024Z,4.10
2022-12-19T19:31:54.028Z,4.22
2022-12-19T19:34:24.575Z,3.92
2022-12-19T19:36:56.415Z,4.25
2022-12-19T19:39:24.837Z,4.00
2022-12-19T19:41:53.563Z,3.63
2022-12-19T19:44:21.308Z,3.88
2022-12-19T19:46:49.272Z,3.85
2022-12-19T19:49:17.135Z,3.70
2022-12-19T19:51:44.908Z,3.75
2022-12-19T19:54:14.102Z,3.70
2022-12-19T19:56:41.931Z,3.80
2022-12-19T19:59:09.698Z,4.20
2022-12-19T20:01:37.675Z,3.95
2022-12-19T20:04:06.052Z,3.78
2022-12-19T20:06:33.835Z,3.58
2022-12-19T20:09:01.634Z,3.90
2022-12-19T20:11:30.923Z,3.70
2022-12-19T20:13:58.683Z,4.00
2022-12-19T20:16:26.536Z,3.83
2022-12-19T20:18:54.319Z,3.50
2022-12-19T20:21:23.927Z,3.78
2022-12-19T20:23:51.700Z,4.43
2022-12-19T20:26:20.199Z,4.03
2022-12-19T20:28:51.252Z,4.03
2022-12-19T20:31:19.480Z,4.00
2022-12-19T20:33:48.416Z,4.07
2022-12-19T20:36:17.229Z,4.10
2022-12-19T20:38:45.244Z,3.90
2022-12-19T20:41:13.131Z,4.47
2022-12-19T20:43:41.396Z,4.00
2022-12-19T20:46:13.724Z,4.20
2022-12-19T20:48:41.871Z,3.80
2022-12-19T20:51:10.469Z,3.40
2022-12-19T20:53:39.521Z,3.70
2022-12-19T20:56:09.228Z,4.13
2022-12-19T20:58:39.006Z,4.10
2022-12-19T21:01:09.205Z,4.10
2022-12-19T21:03:39.312Z,4.60
2022-12-19T21:06:08.806Z,3.78
2022-12-19T21:08:37.633Z,4.25
2022-12-19T21:11:07.193Z,4.22
2022-12-19T21:13:35.563Z,3.80
2022-12-19T21:16:08.526Z,3.83
2022-12-19T21:18:42.921Z,4.82
2022-12-19T21:21:19.316Z,3.80
2022-12-19T21:23:48.640Z,4.22
2022-12-19T21:26:16.381Z,3.88
2022-12-19T21:28:44.885Z,3.67
2022-12-19T21:31:18.381Z,3.90
2022-12-19T21:33:48.061Z,4.18
2022-12-19T21:36:19.037Z,4.40
2022-12-19T21:38:46.960Z,4.32
2022-12-19T21:41:18.991Z,3.88
2022-12-19T21:43:48.687Z,4.13
2022-12-19T21:46:18.260Z,4.10
2022-12-19T21:48:49.505Z,3.55
2022-12-19T21:53:48.059Z,3.75
2022-12-19T21:56:24.342Z,4.38
2022-12-19T21:58:53.209Z,3.83
2022-12-19T22:01:21.653Z,3.63
2022-12-19T22:03:51.811Z,3.60
2022-12-19T22:06:27.748Z,3.50
2022-12-19T22:08:56.540Z,3.95
2022-12-19T22:11:25.463Z,3.70
2022-12-19T22:13:54.172Z,3.97
2022-12-19T22:16:22.048Z,3.85
2022-12-19T22:18:52.974Z,3.55
2022-12-19T22:21:21.533Z,3.47
2022-12-19T22:23:49.339Z,3.70
2022-12-19T22:26:19.469Z,3.90
2022-12-19T22:28:48.894Z,3.80
2022-12-19T22:31:19.199Z,3.80
2022-12-19T22:33:48.335Z,4.03
2022-12-19T22:36:23.982Z,3.35
2022-12-19T22:38:56.857Z,3.75
2022-12-19T22:41:24.881Z,4.07
2022-12-19T22:43:53.429Z,3.65
2022-12-19T22:46:23.448Z,3.63
2022-12-19T22:48:51.769Z,3.50
2022-12-19T22:51:21.364Z,3.60
2022-12-19T22:53:49.893Z,4.75
2022-12-19T22:56:19.743Z,3.70
2022-12-19T22:58:51.079Z,3.63
2022-12-19T23:01:23.418Z,3.80
2022-12-19T23:03:53.727Z,3.70
2022-12-19T23:06:24.559Z,3.55
2022-12-19T23:08:52.747Z,3.63
2022-12-19T23:11:23.867Z,3.53
2022-12-19T23:13:52.159Z,3.20
2022-12-19T23:16:20.082Z,3.70
2022-12-19T23:18:47.947Z,3.90
2022-12-19T23:21:17.339Z,3.28
2022-12-19T23:23:50.227Z,4.07
2022-12-19T23:26:20.136Z,3.45
2022-12-19T23:28:51.785Z,3.42
2022-12-19T23:31:19.620Z,3.50
2022-12-19T23:33:47.494Z,4.18
2022-12-19T23:36:15.532Z,3.28
2022-12-19T23:38:44.741Z,3.28
2022-12-19T23:41:16.012Z,3.53
2022-12-19T23:43:43.893Z,3.63
2022-12-19T23:46:16.185Z,3.92
2022-12-19T23:48:44.545Z,3.55
2022-12-19T23:51:14.401Z,3.50
2022-12-19T23:53:42.470Z,3.78
2022-12-19T23:56:14.889Z,3.15
2022-12-19T23:58:42.804Z,3.30
